OHDAC EFHK-EFNU
Flight info
| Callsign | OHDAC |
|---|---|
| Flight time | 0h 18m |
| Altitude | 6000 |
| Route | VTI |
| Aircraft | DA42/L-SBDGRY/S |
Departure
| Time | 2026-04-24 20:15 |
|---|---|
| Airport | Helsinki Vantaa Airport (EFHK) |
Arrival
| Time | 2026-04-24 20:34 |
|---|---|
| Airport | Nummela Airfield (EFNU) |
| Time | Latitude | Longitude | Altitude | Speed | Heading |
|---|---|---|---|---|---|
| 2026-04-24 20:01 | 60.30937 | 24.97784 | 184 ft | 0 kts | 243° |
| 2026-04-24 20:10 | 60.30943 | 24.97783 | 184 ft | 8 kts | 221° |
| 2026-04-24 20:10 | 60.30928 | 24.97767 | 184 ft | 8 kts | 98° |
| 2026-04-24 20:11 | 60.30981 | 24.97906 | 184 ft | 9 kts | 2° |
| 2026-04-24 20:11 | 60.31081 | 24.97856 | 184 ft | 21 kts | 333° |
| 2026-04-24 20:11 | 60.31177 | 24.97915 | 184 ft | 11 kts | 63° |
| 2026-04-24 20:11 | 60.31250 | 24.97935 | 184 ft | 14 kts | 333° |
| 2026-04-24 20:12 | 60.31362 | 24.97819 | 184 ft | 20 kts | 333° |
| 2026-04-24 20:12 | 60.31478 | 24.97698 | 184 ft | 17 kts | 330° |
| 2026-04-24 20:12 | 60.31579 | 24.97600 | 184 ft | 16 kts | 332° |
| 2026-04-24 20:12 | 60.31710 | 24.97462 | 184 ft | 23 kts | 332° |
| 2026-04-24 20:13 | 60.31866 | 24.97302 | 184 ft | 23 kts | 336° |
| 2026-04-24 20:13 | 60.31997 | 24.97164 | 184 ft | 18 kts | 334° |
| 2026-04-24 20:13 | 60.32101 | 24.97058 | 184 ft | 15 kts | 332° |
| 2026-04-24 20:13 | 60.32192 | 24.96963 | 184 ft | 14 kts | 332° |
| 2026-04-24 20:14 | 60.32308 | 24.96845 | 184 ft | 18 kts | 333° |
| 2026-04-24 20:14 | 60.32414 | 24.96734 | 184 ft | 15 kts | 332° |
| 2026-04-24 20:14 | 60.32506 | 24.96676 | 184 ft | 11 kts | 29° |
| 2026-04-24 20:14 | 60.32517 | 24.96696 | 184 ft | 5 kts | 47° |
| 2026-04-24 20:15 | 60.32737 | 24.97176 | 188 ft | 76 kts | 46° |
| 2026-04-24 20:15 | 60.33114 | 24.98012 | 458 ft | 81 kts | 46° |
| 2026-04-24 20:15 | 60.33484 | 24.98947 | 734 ft | 89 kts | 50° |
| 2026-04-24 20:15 | 60.33859 | 24.99967 | 1034 ft | 93 kts | 50° |
| 2026-04-24 20:16 | 60.34253 | 25.01060 | 1290 ft | 100 kts | 50° |
| 2026-04-24 20:16 | 60.34661 | 25.02200 | 1591 ft | 100 kts | 50° |
| 2026-04-24 20:16 | 60.35066 | 25.03346 | 1902 ft | 100 kts | 51° |
| 2026-04-24 20:16 | 60.35465 | 25.04501 | 2204 ft | 101 kts | 50° |
| 2026-04-24 20:17 | 60.35861 | 25.05662 | 2494 ft | 102 kts | 50° |
| 2026-04-24 20:17 | 60.37033 | 25.05992 | 3092 ft | 91 kts | 325° |
| 2026-04-24 20:17 | 60.37530 | 25.05215 | 3409 ft | 90 kts | 321° |
| 2026-04-24 20:18 | 60.37856 | 25.04666 | 3607 ft | 91 kts | 320° |
| 2026-04-24 20:18 | 60.38497 | 25.03581 | 4011 ft | 91 kts | 320° |
| 2026-04-24 20:18 | 60.38979 | 25.02769 | 4313 ft | 91 kts | 320° |
| 2026-04-24 20:18 | 60.39461 | 25.01955 | 4626 ft | 90 kts | 320° |
| 2026-04-24 20:19 | 60.39938 | 25.01148 | 4930 ft | 90 kts | 320° |
| 2026-04-24 20:19 | 60.40414 | 25.00342 | 5236 ft | 89 kts | 320° |
| 2026-04-24 20:19 | 60.40891 | 24.99529 | 5526 ft | 92 kts | 320° |
| 2026-04-24 20:19 | 60.41316 | 24.98595 | 5874 ft | 93 kts | 297° |
| 2026-04-24 20:20 | 60.41526 | 24.97091 | 5766 ft | 127 kts | 287° |
| 2026-04-24 20:20 | 60.41699 | 24.95192 | 5732 ft | 141 kts | 284° |
| 2026-04-24 20:20 | 60.41847 | 24.93193 | 5721 ft | 147 kts | 283° |
| 2026-04-24 20:20 | 60.41986 | 24.91097 | 5721 ft | 150 kts | 283° |
| 2026-04-24 20:21 | 60.42119 | 24.89004 | 5719 ft | 152 kts | 282° |
| 2026-04-24 20:21 | 60.42253 | 24.86849 | 5717 ft | 152 kts | 282° |
| 2026-04-24 20:21 | 60.42384 | 24.84723 | 5715 ft | 153 kts | 282° |
| 2026-04-24 20:21 | 60.42514 | 24.82589 | 5710 ft | 153 kts | 281° |
| 2026-04-24 20:22 | 60.42644 | 24.80444 | 5710 ft | 152 kts | 282° |
| 2026-04-24 20:22 | 60.42773 | 24.78324 | 5711 ft | 152 kts | 282° |
| 2026-04-24 20:22 | 60.42900 | 24.76210 | 5714 ft | 152 kts | 282° |
| 2026-04-24 20:22 | 60.43030 | 24.74068 | 5709 ft | 153 kts | 282° |
| 2026-04-24 20:23 | 60.43158 | 24.71932 | 5712 ft | 153 kts | 282° |
| 2026-04-24 20:23 | 60.43286 | 24.69801 | 5705 ft | 153 kts | 282° |
| 2026-04-24 20:23 | 60.43415 | 24.67660 | 5705 ft | 153 kts | 282° |
| 2026-04-24 20:23 | 60.43543 | 24.65512 | 5702 ft | 153 kts | 282° |
| 2026-04-24 20:24 | 60.43628 | 24.64089 | 5703 ft | 153 kts | 282° |
| 2026-04-24 20:24 | 60.43799 | 24.61217 | 5701 ft | 153 kts | 282° |
| 2026-04-24 20:24 | 60.43926 | 24.59081 | 5697 ft | 153 kts | 282° |
| 2026-04-24 20:24 | 60.44053 | 24.56929 | 5685 ft | 154 kts | 282° |
| 2026-04-24 20:25 | 60.44185 | 24.54723 | 5491 ft | 157 kts | 281° |
| 2026-04-24 20:25 | 60.44312 | 24.52558 | 5312 ft | 157 kts | 281° |
| 2026-04-24 20:25 | 60.44441 | 24.50351 | 5129 ft | 156 kts | 281° |
| 2026-04-24 20:25 | 60.44567 | 24.48171 | 4945 ft | 156 kts | 281° |
| 2026-04-24 20:26 | 60.44696 | 24.45976 | 4758 ft | 156 kts | 281° |
| 2026-04-24 20:26 | 60.44822 | 24.43779 | 4572 ft | 157 kts | 281° |
| 2026-04-24 20:26 | 60.44950 | 24.41573 | 4388 ft | 157 kts | 281° |
| 2026-04-24 20:26 | 60.45076 | 24.39400 | 4210 ft | 157 kts | 281° |
| 2026-04-24 20:27 | 60.45202 | 24.37206 | 4026 ft | 157 kts | 280° |
| 2026-04-24 20:27 | 60.45329 | 24.35005 | 3840 ft | 157 kts | 280° |
| 2026-04-24 20:27 | 60.45456 | 24.32783 | 3657 ft | 157 kts | 279° |
| 2026-04-24 20:27 | 60.45575 | 24.30600 | 3476 ft | 157 kts | 276° |
| 2026-04-24 20:28 | 60.45304 | 24.28372 | 2989 ft | 177 kts | 246° |
| 2026-04-24 20:28 | 60.44583 | 24.26362 | 2803 ft | 172 kts | 229° |
| 2026-04-24 20:28 | 60.43683 | 24.24838 | 2710 ft | 167 kts | 221° |
| 2026-04-24 20:28 | 60.42757 | 24.23491 | 2697 ft | 159 kts | 219° |
| 2026-04-24 20:29 | 60.42160 | 24.22618 | 2583 ft | 153 kts | 221° |
| 2026-04-24 20:29 | 60.41106 | 24.20931 | 2388 ft | 143 kts | 225° |
| 2026-04-24 20:29 | 60.40316 | 24.19611 | 2097 ft | 146 kts | 223° |
| 2026-04-24 20:29 | 60.39564 | 24.18432 | 2025 ft | 137 kts | 222° |
| 2026-04-24 20:30 | 60.38764 | 24.17315 | 1789 ft | 144 kts | 216° |
| 2026-04-24 20:30 | 60.37815 | 24.16387 | 1478 ft | 155 kts | 202° |
| 2026-04-24 20:30 | 60.36815 | 24.15813 | 1443 ft | 145 kts | 198° |
| 2026-04-24 20:30 | 60.35812 | 24.15400 | 1242 ft | 150 kts | 192° |
| 2026-04-24 20:31 | 60.34841 | 24.15109 | 1347 ft | 133 kts | 187° |
| 2026-04-24 20:31 | 60.33935 | 24.15428 | 1262 ft | 139 kts | 156° |
| 2026-04-24 20:31 | 60.33217 | 24.16644 | 1296 ft | 132 kts | 128° |
| 2026-04-24 20:31 | 60.32673 | 24.18217 | 1157 ft | 139 kts | 124° |
| 2026-04-24 20:32 | 60.32117 | 24.19767 | 1153 ft | 134 kts | 123° |
| 2026-04-24 20:32 | 60.31596 | 24.21348 | 1100 ft | 134 kts | 122° |
| 2026-04-24 20:32 | 60.31167 | 24.22968 | 1033 ft | 134 kts | 107° |
| 2026-04-24 20:32 | 60.31125 | 24.24819 | 924 ft | 132 kts | 70° |
| 2026-04-24 20:33 | 60.31548 | 24.26345 | 835 ft | 109 kts | 41° |
| 2026-04-24 20:33 | 60.32056 | 24.27201 | 630 ft | 85 kts | 35° |
| 2026-04-24 20:33 | 60.32485 | 24.27912 | 450 ft | 76 kts | 36° |
| 2026-04-24 20:33 | 60.32875 | 24.28579 | 371 ft | 68 kts | 40° |
| 2026-04-24 20:34 | 60.33123 | 24.29005 | 373 ft | 33 kts | 36° |
| 2026-04-24 20:34 | 60.33305 | 24.29328 | 374 ft | 37 kts | 41° |
| 2026-04-24 20:34 | 60.33500 | 24.29671 | 375 ft | 31 kts | 36° |
| 2026-04-24 20:34 | 60.33522 | 24.29801 | 374 ft | 4 kts | 26° |
| 2026-04-24 20:35 | 60.33528 | 24.29811 | 374 ft | 5 kts | 47° |
| 2026-04-24 20:35 | 60.33557 | 24.29893 | 374 ft | 10 kts | 53° |
| 2026-04-24 20:35 | 60.33575 | 24.30037 | 373 ft | 12 kts | 86° |
| 2026-04-24 20:35 | 60.33559 | 24.30094 | 373 ft | 0 kts | 144° |
| 2026-04-24 20:36 | 60.33552 | 24.30119 | 373 ft | 6 kts | 119° |
| 2026-04-24 20:36 | 60.33548 | 24.30147 | 373 ft | 0 kts | 34° |